Time;durP1;ratioP1;P1;durP2;ratioP2;P2;SDS_P1;SDS_P2;PMS_P1;PMS_P2;Temp;Humidity;BMP_temperature;BMP_pressure;BME280_temperature;BME280_humidity;BME280_pressure;Samples;Min_cycle;Max_cycle;Signal;HPM_P1;HPM_P2
2023/04/21 00:00:59;;;;;;;45.28;24.48;;;;;;;;;;2035886;29;20055;-80
2023/04/21 00:02:20;;;;;;;45.17;24.75;;;;;;;;;;2035573;29;20420;-81
2023/04/21 00:03:41;;;;;;;44.53;26.25;;;;;;;;;;2038212;29;20243;-79
2023/04/21 00:05:02;;;;;;;47.38;25.55;;;;;;;;;;2033030;29;20036;-80
2023/04/21 00:06:23;;;;;;;44.33;25.02;;;;;;;;;;2032831;29;20111;-80
2023/04/21 00:07:44;;;;;;;44.63;24.60;;;;;;;;;;2033694;29;20044;-81
2023/04/21 00:09:05;;;;;;;46.28;25.40;;;;;;;;;;2037859;29;20106;-80
2023/04/21 00:10:26;;;;;;;46.72;25.23;;;;;;;;;;2036166;29;20111;-81
2023/04/21 00:11:47;;;;;;;47.50;24.63;;;;;;;;;;2038751;29;20440;-82
2023/04/21 00:13:08;;;;;;;52.90;26.15;;;;;;;;;;2036162;29;21190;-81
2023/04/21 00:14:29;;;;;;;47.65;26.42;;;;;;;;;;2036114;29;20048;-81
2023/04/21 00:15:50;;;;;;;47.03;25.58;;;;;;;;;;2041468;28;20119;-82
2023/04/21 00:17:11;;;;;;;49.92;26.42;;;;;;;;;;2034453;29;20598;-80
2023/04/21 00:18:31;;;;;;;45.03;24.88;;;;;;;;;;2040913;29;20039;-80
2023/04/21 00:19:53;;;;;;;42.58;24.45;;;;;;;;;;2044212;29;20031;-80
2023/04/21 00:21:15;;;;;;;43.72;24.13;;;;;;;;;;2034410;29;20032;-82
2023/04/21 00:22:36;;;;;;;53.08;25.58;;;;;;;;;;2036590;29;20031;-82
2023/04/21 00:23:56;;;;;;;45.80;23.63;;;;;;;;;;2037396;29;20067;-81
2023/04/21 00:25:17;;;;;;;46.65;23.70;;;;;;;;;;2036508;29;20048;-81
2023/04/21 00:26:40;;;;;;;43.30;23.50;;;;;;;;;;2038191;28;20031;-81
2023/04/21 00:28:01;;;;;;;48.30;24.25;;;;;;;;;;2043252;28;20086;-83
2023/04/21 00:29:22;;;;;;;39.75;23.27;;;;;;;;;;2040544;29;20400;-81
2023/04/21 00:30:42;;;;;;;40.97;22.08;;;;;;;;;;2038768;29;20022;-83
2023/04/21 00:32:07;;;;;;;44.67;24.25;;;;;;;;;;2037500;29;20142;-80
2023/04/21 00:33:29;;;;;;;38.92;21.75;;;;;;;;;;2036636;29;20032;-82
2023/04/21 00:34:50;;;;;;;38.50;22.08;;;;;;;;;;2037183;29;20471;-82
2023/04/21 00:36:11;;;;;;;39.70;21.40;;;;;;;;;;2036595;29;20043;-82
2023/04/21 00:37:32;;;;;;;42.83;24.02;;;;;;;;;;2037038;29;20463;-82
2023/04/21 00:38:53;;;;;;;48.70;25.40;;;;;;;;;;2038759;29;20039;-82
2023/04/21 00:40:14;;;;;;;44.17;23.98;;;;;;;;;;2041144;29;20047;-82
2023/04/21 00:41:35;;;;;;;37.95;22.52;;;;;;;;;;2044266;28;20047;-82
2023/04/21 00:42:56;;;;;;;41.92;23.17;;;;;;;;;;2038983;29;20042;-82
2023/04/21 00:44:17;;;;;;;42.78;23.67;;;;;;;;;;2035584;29;20036;-80
2023/04/21 00:45:38;;;;;;;38.65;22.52;;;;;;;;;;2037420;29;20036;-80
2023/04/21 00:46:59;;;;;;;49.70;24.45;;;;;;;;;;2044368;29;20039;-80
2023/04/21 00:48:20;;;;;;;44.67;23.50;;;;;;;;;;2037618;29;20420;-80
2023/04/21 00:49:41;;;;;;;41.33;22.27;;;;;;;;;;2037094;29;20044;-81
2023/04/21 00:51:02;;;;;;;41.30;23.13;;;;;;;;;;2039379;29;20403;-82
2023/04/21 00:52:23;;;;;;;51.35;25.05;;;;;;;;;;2033410;29;20087;-81
2023/04/21 00:53:44;;;;;;;45.85;22.73;;;;;;;;;;2037509;29;20420;-80
2023/04/21 00:55:05;;;;;;;42.03;23.30;;;;;;;;;;2043853;29;20189;-80
2023/04/21 00:56:27;;;;;;;41.30;22.15;;;;;;;;;;2033044;29;20036;-80
2023/04/21 00:57:50;;;;;;;49.63;25.43;;;;;;;;;;2033814;29;20031;-80
2023/04/21 00:59:11;;;;;;;51.05;24.40;;;;;;;;;;2036969;29;20446;-80
2023/04/21 01:00:31;;;;;;;52.72;25.17;;;;;;;;;;2029533;29;20456;-79
2023/04/21 01:01:52;;;;;;;43.75;24.20;;;;;;;;;;2035153;29;20060;-78
2023/04/21 01:03:14;;;;;;;43.83;23.23;;;;;;;;;;2034957;29;20019;-79
2023/04/21 01:04:38;;;;;;;45.03;24.00;;;;;;;;;;2042235;29;20051;-78
2023/04/21 01:05:59;;;;;;;47.45;25.02;;;;;;;;;;2032936;29;20043;-78
2023/04/21 01:07:20;;;;;;;42.47;22.88;;;;;;;;;;2035597;29;20357;-79
2023/04/21 01:08:42;;;;;;;51.00;26.75;;;;;;;;;;2038148;28;20114;-79
2023/04/21 01:10:03;;;;;;;56.63;26.73;;;;;;;;;;2042962;29;20027;-79
2023/04/21 01:11:24;;;;;;;49.95;24.20;;;;;;;;;;2035375;29;20529;-79
2023/04/21 01:12:45;;;;;;;47.40;25.15;;;;;;;;;;2043169;28;20035;-80
2023/04/21 01:14:06;;;;;;;47.63;24.00;;;;;;;;;;2032244;29;20545;-79
2023/04/21 01:15:29;;;;;;;53.53;25.67;;;;;;;;;;2040008;29;20483;-80
2023/04/21 01:16:51;;;;;;;52.33;25.65;;;;;;;;;;2035951;29;20576;-79
2023/04/21 01:18:12;;;;;;;51.13;24.33;;;;;;;;;;2036725;29;20432;-79
2023/04/21 01:19:38;;;;;;;54.25;26.70;;;;;;;;;;2034877;29;20039;-80
2023/04/21 01:21:00;;;;;;;46.03;25.17;;;;;;;;;;2035769;29;20555;-78
2023/04/21 01:22:20;;;;;;;51.42;26.48;;;;;;;;;;2033271;29;20027;-78
2023/04/21 01:23:42;;;;;;;48.95;25.40;;;;;;;;;;2036203;29;20519;-79
2023/04/21 01:25:03;;;;;;;48.97;24.88;;;;;;;;;;2035603;29;20138;-80
2023/04/21 01:26:24;;;;;;;51.77;25.53;;;;;;;;;;2035775;29;20107;-79
2023/04/21 01:27:45;;;;;;;51.75;27.20;;;;;;;;;;2035487;29;20438;-79
2023/04/21 01:29:06;;;;;;;51.83;25.92;;;;;;;;;;2042785;28;20087;-79
2023/04/21 01:30:27;;;;;;;51.90;24.67;;;;;;;;;;2035424;29;20443;-79
2023/04/21 01:31:48;;;;;;;54.17;28.52;;;;;;;;;;2035044;29;20090;-79
2023/04/21 01:33:09;;;;;;;49.42;26.00;;;;;;;;;;2037451;29;20035;-80
2023/04/21 01:34:30;;;;;;;47.95;23.98;;;;;;;;;;2042932;28;20102;-79
2023/04/21 01:35:51;;;;;;;51.58;26.17;;;;;;;;;;2040059;28;20040;-79
2023/04/21 01:37:13;;;;;;;51.53;25.13;;;;;;;;;;2040840;29;20080;-79
2023/04/21 01:38:38;;;;;;;49.38;25.85;;;;;;;;;;2039713;29;20036;-79
2023/04/21 01:40:00;;;;;;;50.85;26.15;;;;;;;;;;2038106;29;20047;-79
2023/04/21 01:41:21;;;;;;;;;;;;;;;;;;2034001;29;20159;-79
2023/04/21 01:42:42;;;;;;;47.60;24.95;;;;;;;;;;2038415;29;20035;-78
2023/04/21 01:44:03;;;;;;;44.58;22.55;;;;;;;;;;2035000;29;20076;-77
2023/04/21 01:45:24;;;;;;;50.08;23.95;;;;;;;;;;2038230;29;20131;-80
2023/04/21 01:46:45;;;;;;;46.90;23.88;;;;;;;;;;2035847;29;20091;-79
2023/04/21 01:48:06;;;;;;;53.67;25.77;;;;;;;;;;2033135;29;20550;-79
2023/04/21 01:49:27;;;;;;;53.30;26.30;;;;;;;;;;2035633;29;20047;-79
2023/04/21 01:50:48;;;;;;;51.05;25.42;;;;;;;;;;2038472;29;20032;-79
2023/04/21 01:52:08;;;;;;;52.25;25.77;;;;;;;;;;2027356;29;20742;-79
2023/04/21 01:53:29;;;;;;;48.40;24.92;;;;;;;;;;2034814;29;20040;-80
2023/04/21 01:54:50;;;;;;;51.05;26.02;;;;;;;;;;2042810;29;20051;-79
2023/04/21 01:56:14;;;;;;;48.15;25.15;;;;;;;;;;2037411;29;20094;-79
2023/04/21 01:57:35;;;;;;;49.58;25.33;;;;;;;;;;2040846;29;20035;-80
2023/04/21 01:58:56;;;;;;;48.83;23.40;;;;;;;;;;2040533;29;20035;-80
2023/04/21 02:00:17;;;;;;;53.15;25.50;;;;;;;;;;2036624;29;20032;-80
2023/04/21 02:01:37;;;;;;;50.35;24.70;;;;;;;;;;2038279;29;20034;-81
2023/04/21 02:02:58;;;;;;;50.92;24.98;;;;;;;;;;2042382;28;20032;-81
2023/04/21 02:04:19;;;;;;;45.95;24.63;;;;;;;;;;2040020;28;20048;-81
2023/04/21 02:05:40;;;;;;;56.28;26.02;;;;;;;;;;2036937;29;20142;-81
2023/04/21 02:07:01;;;;;;;47.67;24.83;;;;;;;;;;2038463;29;20433;-81
2023/04/21 02:08:22;;;;;;;57.78;26.67;;;;;;;;;;2035095;29;20511;-81
2023/04/21 02:09:43;;;;;;;59.03;26.23;;;;;;;;;;2032296;29;20044;-81
2023/04/21 02:11:04;;;;;;;50.40;26.50;;;;;;;;;;2033400;29;20048;-81
2023/04/21 02:12:25;;;;;;;61.80;28.85;;;;;;;;;;2035998;29;20166;-81
2023/04/21 02:13:46;;;;;;;60.38;27.08;;;;;;;;;;2043184;29;20122;-82
2023/04/21 02:15:07;;;;;;;55.85;26.48;;;;;;;;;;2036035;29;20036;-82
2023/04/21 02:16:28;;;;;;;64.22;28.63;;;;;;;;;;2036192;29;20028;-82
2023/04/21 02:17:49;;;;;;;60.03;27.73;;;;;;;;;;2033599;29;20555;-82
2023/04/21 02:19:10;;;;;;;52.83;25.45;;;;;;;;;;2033366;29;20060;-82
2023/04/21 02:20:31;;;;;;;55.30;27.85;;;;;;;;;;2040056;29;20023;-83
2023/04/21 02:21:52;;;;;;;58.22;28.02;;;;;;;;;;2036834;29;20036;-82
2023/04/21 02:23:13;;;;;;;55.05;26.50;;;;;;;;;;2041867;29;20031;-83
2023/04/21 02:24:34;;;;;;;55.53;28.02;;;;;;;;;;2040195;29;20099;-83
2023/04/21 02:25:56;;;;;;;52.92;25.27;;;;;;;;;;2028909;29;20764;-82
2023/04/21 02:27:17;;;;;;;54.53;27.42;;;;;;;;;;2038950;28;20348;-82
2023/04/21 02:28:38;;;;;;;68.80;28.08;;;;;;;;;;2035754;29;20032;-83
2023/04/21 02:29:59;;;;;;;62.95;28.40;;;;;;;;;;2032909;29;20046;-82
2023/04/21 02:31:20;;;;;;;58.23;26.67;;;;;;;;;;2036845;29;20024;-83
2023/04/21 02:32:41;;;;;;;62.70;28.25;;;;;;;;;;2033437;29;20529;-82
2023/04/21 02:34:02;;;;;;;64.00;29.55;;;;;;;;;;2032785;29;20040;-83
2023/04/21 02:35:23;;;;;;;59.15;27.98;;;;;;;;;;2035632;29;20064;-83
2023/04/21 02:36:44;;;;;;;62.60;29.58;;;;;;;;;;2034471;29;20693;-82
2023/04/21 02:38:07;;;;;;;70.53;30.30;;;;;;;;;;2042810;29;20043;-83
2023/04/21 02:39:28;;;;;;;57.90;29.48;;;;;;;;;;2038453;29;20040;-83
2023/04/21 02:40:49;;;;;;;61.33;28.65;;;;;;;;;;2032875;29;20397;-83
2023/04/21 02:42:10;;;;;;;59.17;28.60;;;;;;;;;;2036351;29;20388;-83
2023/04/21 02:43:31;;;;;;;63.17;29.42;;;;;;;;;;2039538;29;20036;-82
2023/04/21 02:44:53;;;;;;;68.90;30.33;;;;;;;;;;2035823;29;20043;-83
2023/04/21 02:46:14;;;;;;;61.60;28.98;;;;;;;;;;2043214;29;20046;-83
2023/04/21 02:47:34;;;;;;;69.15;31.90;;;;;;;;;;2040085;29;20170;-81
2023/04/21 02:48:55;;;;;;;69.43;29.25;;;;;;;;;;2039741;29;20530;-81
2023/04/21 02:50:16;;;;;;;66.65;29.95;;;;;;;;;;2033931;29;20095;-81
2023/04/21 02:51:37;;;;;;;62.55;29.25;;;;;;;;;;2039953;29;20107;-81
2023/04/21 02:52:58;;;;;;;58.00;28.48;;;;;;;;;;2039753;28;20023;-83
2023/04/21 02:54:19;;;;;;;60.97;29.23;;;;;;;;;;2042152;28;20086;-83
2023/04/21 02:55:40;;;;;;;62.17;28.48;;;;;;;;;;2047342;29;20105;-83
2023/04/21 02:57:01;;;;;;;65.93;29.05;;;;;;;;;;2035231;29;20448;-83
2023/04/21 02:58:22;;;;;;;66.65;32.05;;;;;;;;;;2045380;28;20050;-83
2023/04/21 02:59:43;;;;;;;68.97;31.02;;;;;;;;;;2047923;29;20558;-83
2023/04/21 03:01:05;;;;;;;68.50;30.77;;;;;;;;;;2041471;29;20044;-84
2023/04/21 03:02:26;;;;;;;66.25;29.33;;;;;;;;;;2045333;29;20019;-83
2023/04/21 03:03:47;;;;;;;65.65;30.05;;;;;;;;;;2032306;29;20043;-83
2023/04/21 03:05:08;;;;;;;69.30;30.55;;;;;;;;;;2031766;29;20597;-83
2023/04/21 03:06:28;;;;;;;73.28;31.48;;;;;;;;;;2036692;29;20028;-83
2023/04/21 03:07:49;;;;;;;68.82;31.70;;;;;;;;;;2039303;28;20040;-84
2023/04/21 03:09:10;;;;;;;69.93;30.17;;;;;;;;;;2032947;29;20047;-83
2023/04/21 03:10:31;;;;;;;73.20;33.67;;;;;;;;;;2025602;29;20330;-83
2023/04/21 03:11:52;;;;;;;72.38;31.45;;;;;;;;;;2032508;29;20594;-84
2023/04/21 03:13:13;;;;;;;83.10;33.67;;;;;;;;;;2035179;29;20036;-83
2023/04/21 03:14:34;;;;;;;70.43;32.65;;;;;;;;;;2033638;29;20083;-84
2023/04/21 03:15:56;;;;;;;77.15;34.55;;;;;;;;;;2034652;29;20040;-84
2023/04/21 03:17:17;;;;;;;67.45;30.98;;;;;;;;;;2034486;29;20064;-84
2023/04/21 03:18:38;;;;;;;72.40;32.72;;;;;;;;;;2034819;29;20753;-84
2023/04/21 03:19:59;;;;;;;71.18;31.55;;;;;;;;;;2032471;29;20111;-84
2023/04/21 03:21:19;;;;;;;80.68;33.28;;;;;;;;;;2034455;29;20413;-84
2023/04/21 03:22:40;;;;;;;73.63;32.45;;;;;;;;;;2032694;29;20098;-84
2023/04/21 03:24:01;;;;;;;73.35;34.63;;;;;;;;;;2040380;29;20507;-86
2023/04/21 03:25:22;;;;;;;81.65;33.90;;;;;;;;;;2035972;29;20039;-84
2023/04/21 03:26:43;;;;;;;82.40;34.17;;;;;;;;;;2042938;29;20094;-85
2023/04/21 03:28:04;;;;;;;78.28;31.90;;;;;;;;;;2035751;29;20067;-85
2023/04/21 03:29:25;;;;;;;71.28;33.38;;;;;;;;;;2038501;29;20111;-84
2023/04/21 03:30:46;;;;;;;80.78;32.40;;;;;;;;;;2037012;29;20087;-84
2023/04/21 03:32:07;;;;;;;95.43;37.92;;;;;;;;;;2038227;29;20432;-84
2023/04/21 03:33:28;;;;;;;77.03;32.67;;;;;;;;;;2033165;29;20028;-84
2023/04/21 03:34:49;;;;;;;71.70;30.50;;;;;;;;;;2031375;29;20080;-84
2023/04/21 03:36:10;;;;;;;78.95;32.75;;;;;;;;;;2036730;29;20061;-84
2023/04/21 03:37:31;;;;;;;79.15;34.47;;;;;;;;;;2033582;29;20220;-85
2023/04/21 03:38:52;;;;;;;84.07;33.72;;;;;;;;;;2032697;29;20498;-84
2023/04/21 03:40:13;;;;;;;74.72;33.47;;;;;;;;;;2037257;29;20023;-84
2023/04/21 03:41:34;;;;;;;77.13;31.85;;;;;;;;;;2036481;29;20032;-83
2023/04/21 03:42:54;;;;;;;84.78;34.25;;;;;;;;;;2029073;29;20092;-85
2023/04/21 03:44:15;;;;;;;84.35;34.83;;;;;;;;;;2030649;29;20427;-85
2023/04/21 03:45:36;;;;;;;80.50;32.85;;;;;;;;;;2031917;29;20048;-85
2023/04/21 03:46:57;;;;;;;77.63;32.90;;;;;;;;;;2037026;28;20040;-85
2023/04/21 03:48:18;;;;;;;79.20;33.50;;;;;;;;;;2037849;29;20035;-84
2023/04/21 03:49:39;;;;;;;68.43;30.23;;;;;;;;;;2034692;29;20048;-85
2023/04/21 03:51:00;;;;;;;89.30;37.20;;;;;;;;;;2041819;29;20082;-85
2023/04/21 03:52:22;;;;;;;75.95;34.33;;;;;;;;;;2036650;29;20520;-85
2023/04/21 03:53:42;;;;;;;81.82;35.63;;;;;;;;;;2034921;29;20044;-85
2023/04/21 03:55:04;;;;;;;79.55;34.47;;;;;;;;;;2034893;29;20099;-85
2023/04/21 03:56:24;;;;;;;75.47;32.08;;;;;;;;;;2036479;29;20051;-84
2023/04/21 03:57:45;;;;;;;80.03;33.22;;;;;;;;;;2035357;29;20044;-85
2023/04/21 03:59:06;;;;;;;72.85;32.28;;;;;;;;;;2034246;29;20410;-85
2023/04/21 04:00:27;;;;;;;82.30;34.58;;;;;;;;;;2038789;29;20094;-85
2023/04/21 04:01:48;;;;;;;81.35;34.60;;;;;;;;;;2034934;29;20044;-86
2023/04/21 04:03:09;;;;;;;82.18;33.00;;;;;;;;;;2043858;29;20087;-85
2023/04/21 04:04:30;;;;;;;78.35;33.20;;;;;;;;;;2037423;29;20130;-85
2023/04/21 04:05:51;;;;;;;82.65;33.47;;;;;;;;;;2040929;28;20036;-85
2023/04/21 04:07:12;;;;;;;81.18;35.33;;;;;;;;;;2037620;29;20066;-85
2023/04/21 04:08:33;;;;;;;82.30;36.67;;;;;;;;;;2028120;29;20032;-84
2023/04/21 04:09:54;;;;;;;82.90;34.15;;;;;;;;;;2034873;29;20047;-85
2023/04/21 04:11:14;;;;;;;87.90;34.20;;;;;;;;;;2034190;29;20094;-85
2023/04/21 04:12:35;;;;;;;84.13;37.55;;;;;;;;;;2038170;29;20412;-86
2023/04/21 04:13:57;;;;;;;76.20;34.33;;;;;;;;;;2032329;29;20091;-85
2023/04/21 04:15:17;;;;;;;78.50;34.78;;;;;;;;;;2034421;29;20128;-85
2023/04/21 04:16:38;;;;;;;87.00;34.70;;;;;;;;;;2034118;29;20048;-85
2023/04/21 04:18:00;;;;;;;85.30;35.28;;;;;;;;;;2033266;29;20043;-85
2023/04/21 04:19:21;;;;;;;91.03;34.88;;;;;;;;;;2034472;29;20499;-85
2023/04/21 04:20:42;;;;;;;74.10;32.22;;;;;;;;;;2036966;29;20091;-84
2023/04/21 04:22:03;;;;;;;97.90;40.83;;;;;;;;;;2034348;29;20043;-85
2023/04/21 04:23:24;;;;;;;76.53;33.60;;;;;;;;;;2037807;29;20408;-84
2023/04/21 04:24:46;;;;;;;77.50;33.58;;;;;;;;;;2036375;29;20039;-85
2023/04/21 04:26:08;;;;;;;81.22;33.13;;;;;;;;;;2041812;28;20031;-85
2023/04/21 04:27:29;;;;;;;83.22;35.63;;;;;;;;;;2036008;29;20083;-84
2023/04/21 04:28:55;;;;;;;87.50;33.20;;;;;;;;;;2034195;29;20068;-86
2023/04/21 04:30:15;;;;;;;82.72;34.67;;;;;;;;;;2037741;29;20048;-84
2023/04/21 04:31:36;;;;;;;75.50;33.72;;;;;;;;;;2037336;29;20032;-85
2023/04/21 04:32:57;;;;;;;78.82;34.65;;;;;;;;;;2033161;29;20075;-84
2023/04/21 04:34:18;;;;;;;81.40;33.90;;;;;;;;;;2042344;29;20070;-85
2023/04/21 04:35:39;;;;;;;87.63;34.55;;;;;;;;;;2035148;29;20044;-84
2023/04/21 04:37:01;;;;;;;77.60;34.42;;;;;;;;;;2030368;29;20084;-85
2023/04/21 04:38:22;;;;;;;77.85;33.15;;;;;;;;;;2035202;29;21783;-85
2023/04/21 04:39:42;;;;;;;79.07;33.88;;;;;;;;;;2035614;29;20040;-85
2023/04/21 04:41:03;;;;;;;84.30;35.45;;;;;;;;;;2031415;29;20054;-85
2023/04/21 04:42:24;;;;;;;84.75;33.00;;;;;;;;;;2034109;29;20068;-84
2023/04/21 04:43:46;;;;;;;82.82;33.00;;;;;;;;;;2033073;29;20473;-85
2023/04/21 04:45:08;;;;;;;88.83;35.53;;;;;;;;;;2033578;29;20444;-84
2023/04/21 04:46:28;;;;;;;92.63;36.47;;;;;;;;;;2033564;29;20465;-84
2023/04/21 04:47:49;;;;;;;85.28;33.75;;;;;;;;;;2043895;29;20031;-85
2023/04/21 04:49:10;;;;;;;80.03;34.42;;;;;;;;;;2043994;29;20023;-85
2023/04/21 04:50:31;;;;;;;84.65;33.05;;;;;;;;;;2039197;29;20036;-84
2023/04/21 04:51:52;;;;;;;73.10;31.33;;;;;;;;;;2030117;29;20076;-84
2023/04/21 04:53:13;;;;;;;79.57;32.78;;;;;;;;;;2035927;29;20119;-85
2023/04/21 04:54:35;;;;;;;81.03;33.22;;;;;;;;;;2038404;29;20031;-85
2023/04/21 04:55:57;;;;;;;79.00;35.17;;;;;;;;;;2041238;28;20190;-85
2023/04/21 04:57:18;;;;;;;;;;;;;;;;;;2032927;29;20482;-85
2023/04/21 04:58:39;;;;;;;86.95;34.33;;;;;;;;;;2042419;29;19957;-84
2023/04/21 04:59:59;;;;;;;81.10;31.92;;;;;;;;;;2037103;29;20447;-85
2023/04/21 05:01:21;;;;;;;79.72;33.50;;;;;;;;;;2036077;29;20062;-84
2023/04/21 05:02:42;;;;;;;85.32;33.33;;;;;;;;;;2043350;28;20035;-84
2023/04/21 05:04:03;;;;;;;81.50;33.50;;;;;;;;;;2033614;29;20518;-84
2023/04/21 05:05:24;;;;;;;70.80;31.02;;;;;;;;;;2027973;29;20091;-84
2023/04/21 05:06:45;;;;;;;84.47;33.10;;;;;;;;;;2038545;29;20471;-85
2023/04/21 05:08:05;;;;;;;73.85;32.45;;;;;;;;;;2033039;29;20040;-85
2023/04/21 05:09:26;;;;;;;83.25;34.70;;;;;;;;;;2022614;29;20033;-84
2023/04/21 05:10:47;;;;;;;89.95;37.00;;;;;;;;;;2023437;29;20056;-84
2023/04/21 05:12:08;;;;;;;89.43;35.60;;;;;;;;;;2035944;29;20038;-84
2023/04/21 05:13:29;;;;;;;73.38;31.27;;;;;;;;;;2029374;29;20501;-85
2023/04/21 05:14:50;;;;;;;82.22;33.55;;;;;;;;;;2025758;29;20040;-85
2023/04/21 05:16:11;;;;;;;79.32;33.25;;;;;;;;;;2034627;29;20088;-84
2023/04/21 05:17:32;;;;;;;93.13;38.45;;;;;;;;;;2028045;29;20135;-84
2023/04/21 05:18:53;;;;;;;100.00;36.70;;;;;;;;;;2034852;29;20032;-85
2023/04/21 05:20:14;;;;;;;80.50;33.67;;;;;;;;;;2028936;29;20629;-85
2023/04/21 05:21:35;;;;;;;94.63;36.10;;;;;;;;;;2026565;29;20589;-85
2023/04/21 05:22:56;;;;;;;84.38;35.10;;;;;;;;;;2029262;29;20088;-85
2023/04/21 05:24:22;;;;;;;89.45;35.80;;;;;;;;;;2026421;29;20020;-85
2023/04/21 05:25:43;;;;;;;92.13;35.33;;;;;;;;;;2032009;29;20488;-85
2023/04/21 05:27:04;;;;;;;90.57;36.63;;;;;;;;;;2036773;29;20444;-85
2023/04/21 05:28:28;;;;;;;82.15;33.67;;;;;;;;;;2030635;29;20107;-85
2023/04/21 05:29:50;;;;;;;90.18;34.72;;;;;;;;;;2036792;29;20039;-85
2023/04/21 05:31:10;;;;;;;95.78;38.35;;;;;;;;;;2027431;29;20072;-85
2023/04/21 05:32:31;;;;;;;90.53;34.33;;;;;;;;;;2026686;29;20047;-85
2023/04/21 05:33:52;;;;;;;84.72;33.28;;;;;;;;;;2034417;29;20111;-85
2023/04/21 05:35:13;;;;;;;89.05;35.65;;;;;;;;;;2029479;29;20043;-85
2023/04/21 05:36:34;;;;;;;78.15;33.67;;;;;;;;;;2028516;29;20087;-84
2023/04/21 05:37:55;;;;;;;89.80;34.53;;;;;;;;;;2026596;29;20064;-86
2023/04/21 05:39:16;;;;;;;85.93;34.42;;;;;;;;;;2035244;29;20083;-85
2023/04/21 05:40:37;;;;;;;95.93;36.78;;;;;;;;;;2029334;29;20092;-84
2023/04/21 05:41:58;;;;;;;91.28;35.08;;;;;;;;;;2028140;29;20417;-85
2023/04/21 05:43:19;;;;;;;83.90;35.30;;;;;;;;;;2034716;29;20095;-84
2023/04/21 05:44:40;;;;;;;102.00;37.33;;;;;;;;;;2028244;29;20249;-84
2023/04/21 05:46:01;;;;;;;89.55;36.45;;;;;;;;;;2028488;29;20052;-84
2023/04/21 05:47:22;;;;;;;103.32;37.10;;;;;;;;;;2034261;29;20476;-84
2023/04/21 05:48:43;;;;;;;98.88;37.00;;;;;;;;;;2027098;29;20084;-84
2023/04/21 05:50:05;;;;;;;94.38;36.30;;;;;;;;;;2024868;29;20112;-84
2023/04/21 05:51:25;;;;;;;106.13;39.50;;;;;;;;;;2026057;29;20274;-84
2023/04/21 05:52:46;;;;;;;107.05;39.72;;;;;;;;;;2028555;29;20028;-83
2023/04/21 05:54:07;;;;;;;100.22;36.45;;;;;;;;;;2035408;29;20419;-83
2023/04/21 05:55:28;;;;;;;91.68;37.67;;;;;;;;;;2028521;29;20044;-84
2023/04/21 05:56:49;;;;;;;97.35;37.55;;;;;;;;;;2026363;29;20076;-84
2023/04/21 05:58:10;;;;;;;99.40;39.45;;;;;;;;;;2033002;29;20062;-84
2023/04/21 05:59:31;;;;;;;104.07;40.08;;;;;;;;;;2029896;29;20021;-84
2023/04/21 06:00:52;;;;;;;102.35;39.53;;;;;;;;;;2034688;29;20479;-82
2023/04/21 06:02:13;;;;;;;93.35;40.45;;;;;;;;;;2024270;29;20153;-83
2023/04/21 06:03:34;;;;;;;93.65;37.35;;;;;;;;;;2025340;29;20722;-82
2023/04/21 06:04:55;;;;;;;106.38;40.92;;;;;;;;;;2032600;29;20048;-82
2023/04/21 06:06:16;;;;;;;98.97;39.38;;;;;;;;;;2020985;29;20052;-82
2023/04/21 06:07:37;;;;;;;87.35;36.33;;;;;;;;;;2022362;29;20025;-82
2023/04/21 06:08:58;;;;;;;115.07;47.08;;;;;;;;;;2021265;29;20033;-81
2023/04/21 06:10:20;;;;;;;96.82;37.08;;;;;;;;;;2022739;29;20095;-80
2023/04/21 06:11:40;;;;;;;87.13;37.60;;;;;;;;;;2022285;29;20047;-82
2023/04/21 06:13:01;;;;;;;88.55;36.25;;;;;;;;;;2030682;29;20043;-82
2023/04/21 06:14:22;;;;;;;93.20;37.95;;;;;;;;;;2023814;29;20416;-82
2023/04/21 06:15:43;;;;;;;102.30;38.80;;;;;;;;;;2026996;29;20124;-81
2023/04/21 06:17:04;;;;;;;85.30;34.92;;;;;;;;;;2023367;29;20172;-84
2023/04/21 06:18:28;;;;;;;114.60;47.28;;;;;;;;;;2022882;29;20420;-80
2023/04/21 06:19:52;;;;;;;98.50;41.08;;;;;;;;;;2015799;29;20146;-79
2023/04/21 06:21:12;;;;;;;92.50;36.60;;;;;;;;;;2019451;29;20032;-81
2023/04/21 06:22:33;;;;;;;94.18;38.05;;;;;;;;;;2020664;29;20496;-80
2023/04/21 06:23:54;;;;;;;88.85;38.72;;;;;;;;;;2022009;29;20048;-81
2023/04/21 06:25:15;;;;;;;82.95;35.15;;;;;;;;;;2023136;29;20041;-81
2023/04/21 06:26:36;;;;;;;94.78;38.85;;;;;;;;;;2028129;29;20028;-77
2023/04/21 06:27:57;;;;;;;88.90;39.28;;;;;;;;;;2024095;29;20041;-76
2023/04/21 06:29:18;;;;;;;86.22;35.65;;;;;;;;;;2032593;29;20079;-76
2023/04/21 06:30:39;;;;;;;95.95;38.85;;;;;;;;;;2023814;29;20037;-87
2023/04/21 06:32:00;;;;;;;94.72;40.90;;;;;;;;;;2027096;29;20100;-87
2023/04/21 06:33:21;;;;;;;94.63;36.22;;;;;;;;;;2032049;29;20028;-86
2023/04/21 06:34:42;;;;;;;91.20;37.20;;;;;;;;;;2037658;29;20040;-85
2023/04/21 06:36:03;;;;;;;96.20;39.67;;;;;;;;;;2024990;29;20048;-87
2023/04/21 06:37:24;;;;;;;91.68;40.47;;;;;;;;;;2023801;29;20412;-87
2023/04/21 06:38:45;;;;;;;87.68;35.28;;;;;;;;;;2032046;29;20040;-86
2023/04/21 06:40:06;;;;;;;87.70;37.47;;;;;;;;;;2033992;29;20091;-84
2023/04/21 06:41:27;;;;;;;84.03;35.42;;;;;;;;;;2026114;29;20108;-86
2023/04/21 06:42:48;;;;;;;85.90;35.90;;;;;;;;;;2017611;29;20041;-85
2023/04/21 06:44:12;;;;;;;80.00;33.50;;;;;;;;;;2022879;29;20025;-82
2023/04/21 06:45:33;;;;;;;102.03;46.17;;;;;;;;;;2028844;29;20492;-80
2023/04/21 06:46:54;;;;;;;81.35;35.75;;;;;;;;;;2031512;29;20163;-87
2023/04/21 06:48:15;;;;;;;78.68;36.42;;;;;;;;;;2024577;29;20041;-82
2023/04/21 06:49:36;;;;;;;76.70;34.20;;;;;;;;;;2024347;29;20323;-77
2023/04/21 06:50:57;;;;;;;84.63;38.85;;;;;;;;;;2027340;29;20036;-80
2023/04/21 06:52:18;;;;;;;79.85;36.75;;;;;;;;;;2025987;29;20032;-79
2023/04/21 06:53:39;;;;;;;73.40;33.08;;;;;;;;;;2031282;29;20108;-80
2023/04/21 06:55:00;;;;;;;71.90;33.17;;;;;;;;;;2027605;29;20056;-80
2023/04/21 06:56:21;;;;;;;76.88;34.85;;;;;;;;;;2031054;29;20055;-80
2023/04/21 06:57:42;;;;;;;75.72;32.67;;;;;;;;;;2021993;29;20044;-80
2023/04/21 06:59:02;;;;;;;73.38;36.55;;;;;;;;;;2031854;29;20040;-80
2023/04/21 07:00:23;;;;;;;74.50;38.38;;;;;;;;;;2025599;29;20032;-80
2023/04/21 07:01:44;;;;;;;69.45;31.98;;;;;;;;;;2025228;29;20393;-80
2023/04/21 07:03:05;;;;;;;66.55;33.28;;;;;;;;;;2030390;29;20055;-80
2023/04/21 07:04:28;;;;;;;68.07;33.95;;;;;;;;;;2033995;29;20051;-80
2023/04/21 07:05:49;;;;;;;62.30;30.23;;;;;;;;;;2031353;29;20040;-81
2023/04/21 07:07:10;;;;;;;62.78;30.52;;;;;;;;;;2039855;29;20036;-80
2023/04/21 07:08:31;;;;;;;64.95;30.48;;;;;;;;;;2034901;29;20048;-80
2023/04/21 07:09:52;;;;;;;71.22;34.90;;;;;;;;;;2034991;29;20028;-80
2023/04/21 07:11:13;;;;;;;62.10;31.33;;;;;;;;;;2037457;29;20031;-80
2023/04/21 07:12:34;;;;;;;64.90;31.75;;;;;;;;;;2038954;29;20039;-80
2023/04/21 07:13:55;;;;;;;58.85;30.90;;;;;;;;;;2033856;29;20112;-80
2023/04/21 07:15:16;;;;;;;57.75;29.98;;;;;;;;;;2035765;29;20043;-80
2023/04/21 07:16:36;;;;;;;62.28;30.00;;;;;;;;;;2040334;29;20036;-80
2023/04/21 07:17:57;;;;;;;60.83;31.60;;;;;;;;;;2042891;29;20063;-79
2023/04/21 07:19:18;;;;;;;65.32;36.08;;;;;;;;;;2039993;29;20028;-80
2023/04/21 07:20:39;;;;;;;57.38;30.20;;;;;;;;;;2035397;29;20056;-79
2023/04/21 07:22:00;;;;;;;59.28;28.02;;;;;;;;;;2033646;29;20076;-79
2023/04/21 07:23:21;;;;;;;55.13;28.38;;;;;;;;;;2042573;29;20042;-79
2023/04/21 07:24:42;;;;;;;59.22;32.65;;;;;;;;;;2039584;29;20032;-79
2023/04/21 07:26:03;;;;;;;57.55;30.50;;;;;;;;;;2041773;29;20047;-79
2023/04/21 07:27:24;;;;;;;52.53;27.00;;;;;;;;;;2029709;29;20047;-79
2023/04/21 07:28:45;;;;;;;57.40;28.05;;;;;;;;;;2025623;29;20151;-79
2023/04/21 07:30:06;;;;;;;53.92;28.30;;;;;;;;;;2031783;29;20040;-81
2023/04/21 07:31:27;;;;;;;56.03;28.88;;;;;;;;;;2034260;29;20064;-79
2023/04/21 07:32:48;;;;;;;51.80;28.75;;;;;;;;;;2034358;29;20047;-80
2023/04/21 07:34:08;;;;;;;52.05;27.42;;;;;;;;;;2039524;29;20031;-80
2023/04/21 07:35:29;;;;;;;51.53;28.13;;;;;;;;;;2033770;29;20036;-79
2023/04/21 07:36:51;;;;;;;49.75;26.40;;;;;;;;;;2030078;29;20055;-80
2023/04/21 07:38:12;;;;;;;50.47;26.67;;;;;;;;;;2039625;29;20035;-80
2023/04/21 07:39:33;;;;;;;46.45;25.75;;;;;;;;;;2036571;29;20087;-80
2023/04/21 07:40:53;;;;;;;46.72;25.95;;;;;;;;;;2027781;29;20105;-80
2023/04/21 07:42:14;;;;;;;51.67;27.63;;;;;;;;;;2033462;29;20496;-80
2023/04/21 07:43:35;;;;;;;48.33;25.13;;;;;;;;;;2047638;29;20035;-80
2023/04/21 07:44:56;;;;;;;49.22;27.08;;;;;;;;;;2049832;29;20035;-79
2023/04/21 07:46:17;;;;;;;48.80;25.33;;;;;;;;;;2036942;29;20464;-80
2023/04/21 07:47:38;;;;;;;51.30;27.05;;;;;;;;;;2038080;29;20047;-80
2023/04/21 07:48:59;;;;;;;45.10;25.65;;;;;;;;;;2035343;29;20043;-79
2023/04/21 07:50:20;;;;;;;47.85;27.33;;;;;;;;;;2026049;29;20037;-79
2023/04/21 07:51:41;;;;;;;48.55;27.00;;;;;;;;;;2039444;29;20032;-79